Time;durP1;ratioP1;P1;durP2;ratioP2;P2;SDS_P1;SDS_P2;PMS_P1;PMS_P2;Temp;Humidity;BMP_temperature;BMP_pressure;BME280_temperature;BME280_humidity;BME280_pressure;Samples;Min_cycle;Max_cycle;Signal;HPM_P1;HPM_P2
2023/01/31 00:01:07;;;;;;;12.10;4.53;;;8.40;99.90;;;;;;5072152;28;20506;-63
2023/01/31 00:03:33;;;;;;;9.17;4.30;;;8.40;99.90;;;;;;5056429;28;20419;-63
2023/01/31 00:06:12;;;;;;;11.97;3.83;;;8.40;99.90;;;;;;5057792;28;20853;-63
2023/01/31 00:08:38;;;;;;;8.53;4.47;;;8.40;99.90;;;;;;5071164;28;20250;-64
2023/01/31 00:11:04;;;;;;;12.23;4.37;;;8.50;99.90;;;;;;5070181;28;20529;-63
2023/01/31 00:13:30;;;;;;;10.40;3.93;;;8.50;99.90;;;;;;5067530;28;20264;-63
2023/01/31 00:15:56;;;;;;;11.27;4.33;;;8.60;99.90;;;;;;5070354;28;20210;-63
2023/01/31 00:18:22;;;;;;;13.83;4.30;;;8.60;99.90;;;;;;5072460;28;20470;-63
2023/01/31 00:20:50;;;;;;;11.73;4.30;;;8.60;99.90;;;;;;5054230;28;20954;-63
2023/01/31 00:23:16;;;;;;;9.37;3.90;;;8.50;99.90;;;;;;5056459;28;20435;-64
2023/01/31 00:25:42;;;;;;;9.37;4.50;;;8.60;99.90;;;;;;5071346;28;20209;-64
2023/01/31 00:28:07;;;;;;;10.53;5.20;;;8.50;99.90;;;;;;5053557;28;20637;-63
2023/01/31 00:30:34;;;;;;;12.80;4.90;;;8.50;99.90;;;;;;5059306;28;20219;-63
2023/01/31 00:32:59;;;;;;;12.97;4.47;;;8.50;99.90;;;;;;5067128;28;20780;-63
2023/01/31 00:35:25;;;;;;;12.93;5.13;;;8.50;99.90;;;;;;5052503;28;20539;-63
2023/01/31 00:37:51;;;;;;;9.90;4.50;;;8.50;99.90;;;;;;5064122;28;20633;-63
2023/01/31 00:40:16;;;;;;;11.10;5.03;;;8.40;99.90;;;;;;5065370;28;20216;-63
2023/01/31 00:42:43;;;;;;;14.03;5.67;;;8.40;99.90;;;;;;5047472;28;20200;-66
2023/01/31 00:45:09;;;;;;;9.77;5.00;;;8.40;99.90;;;;;;5020308;28;20209;-63
2023/01/31 00:47:35;;;;;;;8.80;4.37;;;8.40;99.90;;;;;;5042964;28;20444;-64
2023/01/31 00:50:01;;;;;;;16.37;4.73;;;8.40;99.90;;;;;;5039268;28;20435;-66
2023/01/31 00:52:27;;;;;;;19.70;5.03;;;8.40;99.90;;;;;;5047763;28;20425;-64
2023/01/31 00:54:52;;;;;;;16.13;4.43;;;8.40;99.90;;;;;;5017212;28;20420;-63
2023/01/31 00:57:18;;;;;;;14.13;5.33;;;8.40;99.90;;;;;;5039817;28;20186;-63
2023/01/31 00:59:44;;;;;;;8.43;4.40;;;8.50;99.90;;;;;;5036338;28;20622;-64
2023/01/31 01:02:09;;;;;;;11.40;4.77;;;8.40;99.90;;;;;;5049615;28;20262;-63
2023/01/31 01:04:35;;;;;;;14.00;5.27;;;8.50;99.90;;;;;;5048390;28;20190;-63
2023/01/31 01:07:01;;;;;;;11.13;4.33;;;8.40;99.90;;;;;;5047130;28;20856;-63
2023/01/31 01:09:26;;;;;;;9.43;4.70;;;8.30;99.90;;;;;;5036489;28;20187;-64
2023/01/31 01:11:52;;;;;;;9.73;4.80;;;8.30;99.90;;;;;;5036272;28;20277;-64
2023/01/31 01:14:18;;;;;;;18.40;4.97;;;8.30;99.90;;;;;;5016458;28;20182;-63
2023/01/31 01:16:44;;;;;;;7.43;3.93;;;8.30;99.90;;;;;;5042861;28;20189;-64
2023/01/31 01:19:16;;;;;;;9.60;4.50;;;8.40;99.90;;;;;;5047228;28;20435;-63
2023/01/31 01:21:43;;;;;;;9.97;4.37;;;8.40;99.90;;;;;;5049859;28;20177;-67
2023/01/31 01:24:16;;;;;;;9.13;4.40;;;8.40;99.90;;;;;;5035214;28;20471;-64
2023/01/31 01:26:42;;;;;;;9.87;4.63;;;8.40;99.90;;;;;;5026153;28;20492;-67
2023/01/31 01:29:08;;;;;;;10.50;4.10;;;8.40;99.90;;;;;;5034995;28;20469;-63
2023/01/31 01:31:34;;;;;;;6.70;4.40;;;8.40;99.90;;;;;;5030800;28;22382;-63
2023/01/31 01:34:02;;;;;;;10.10;4.07;;;8.50;99.90;;;;;;5052394;28;20666;-64
2023/01/31 01:36:30;;;;;;;13.97;4.50;;;8.50;99.90;;;;;;5046425;28;20443;-64
2023/01/31 01:38:56;;;;;;;11.47;4.63;;;8.50;99.90;;;;;;5033159;28;20516;-64
2023/01/31 01:41:22;;;;;;;10.80;4.20;;;8.50;99.90;;;;;;5038579;28;20561;-64
2023/01/31 01:43:56;;;;;;;14.73;5.20;;;8.50;99.90;;;;;;5052906;28;20280;-63
2023/01/31 01:46:35;;;;;;;16.70;4.40;;;8.50;99.90;;;;;;5053328;28;20557;-64
2023/01/31 01:49:18;;;;;;;11.93;4.40;;;8.40;99.90;;;;;;5034332;28;20487;-63
2023/01/31 01:51:45;;;;;;;8.67;4.80;;;8.40;99.90;;;;;;5051959;28;20432;-67
2023/01/31 01:54:40;;;;;;;8.10;4.43;;;8.50;99.90;;;;;;5035739;28;20486;-64
2023/01/31 01:57:07;;;;;;;10.63;4.87;;;8.50;99.90;;;;;;5044074;28;20544;-64
2023/01/31 01:59:57;;;;;;;13.90;4.80;;;8.40;99.90;;;;;;5054897;28;20423;-64
2023/01/31 02:02:23;;;;;;;9.70;4.13;;;8.40;99.90;;;;;;5052500;28;20431;-64
2023/01/31 02:04:51;;;;;;;11.90;4.00;;;8.30;99.90;;;;;;5052735;28;20442;-64
2023/01/31 02:07:17;;;;;;;13.10;4.50;;;8.30;99.90;;;;;;5054428;28;20188;-63
2023/01/31 02:10:07;;;;;;;11.50;4.60;;;8.30;99.90;;;;;;5051014;28;20781;-67
2023/01/31 02:12:33;;;;;;;8.53;3.47;;;8.30;99.90;;;;;;5044253;28;20499;-63
2023/01/31 02:14:59;;;;;;;7.30;3.63;;;8.30;99.90;;;;;;5033199;28;20912;-64
2023/01/31 02:17:25;;;;;;;8.10;4.43;;;8.30;99.90;;;;;;5038847;28;20523;-63
2023/01/31 02:20:12;;;;;;;15.03;3.70;;;8.30;99.90;;;;;;5049262;28;20514;-64
2023/01/31 02:22:53;;;;;;;8.33;3.80;;;8.30;99.90;;;;;;5053115;28;20318;-63
2023/01/31 02:25:45;;;;;;;10.30;3.90;;;8.30;99.90;;;;;;5035211;28;20455;-63
2023/01/31 02:28:26;;;;;;;8.77;4.23;;;8.30;99.90;;;;;;5054205;28;20494;-63
2023/01/31 02:30:59;;;;;;;10.50;4.70;;;8.20;99.90;;;;;;5045868;28;20443;-64
2023/01/31 02:33:29;;;;;;;8.30;3.60;;;8.20;99.90;;;;;;5053129;28;20440;-63
2023/01/31 02:36:37;;;;;;;10.03;3.80;;;8.30;99.90;;;;;;5033511;28;20443;-64
2023/01/31 02:39:21;;;;;;;7.97;3.53;;;8.30;99.90;;;;;;5033928;28;20444;-63
2023/01/31 02:42:04;;;;;;;11.07;3.87;;;8.30;99.90;;;;;;5066972;28;20455;-67
2023/01/31 02:44:59;;;;;;;15.47;4.70;;;8.30;99.90;;;;;;5072658;28;20531;-63
2023/01/31 02:47:43;;;;;;;9.20;4.00;;;8.30;99.90;;;;;;5073066;28;20439;-63
2023/01/31 02:50:45;;;;;;;11.77;4.30;;;8.40;99.90;;;;;;5070647;28;20407;-63
2023/01/31 02:53:42;;;;;;;8.63;5.00;;;8.40;99.90;;;;;;5061639;28;20418;-64
2023/01/31 02:56:17;;;;;;;7.20;4.30;;;8.30;99.90;;;;;;5073042;28;20558;-63
2023/01/31 02:58:55;;;;;;;8.10;4.13;;;8.30;99.90;;;;;;5072472;28;20890;-63
2023/01/31 03:01:29;;;;;;;7.23;4.50;;;8.30;99.90;;;;;;5072562;28;20520;-63
2023/01/31 03:04:14;;;;;;;10.80;4.53;;;8.20;99.90;;;;;;5072881;28;20403;-64
2023/01/31 03:06:53;;;;;;;7.07;3.63;;;8.20;99.90;;;;;;5072676;28;20554;-64
2023/01/31 03:09:37;;;;;;;9.10;4.03;;;8.20;99.90;;;;;;5071593;28;20449;-63
2023/01/31 03:12:13;;;;;;;11.17;3.73;;;8.20;99.90;;;;;;5071487;28;20442;-63
2023/01/31 03:15:09;;;;;;;13.73;4.80;;;8.20;99.90;;;;;;5072225;28;20771;-66
2023/01/31 03:17:59;;;;;;;7.17;5.57;;;8.20;99.90;;;;;;5073501;28;20867;-64
2023/01/31 03:20:48;;;;;;;6.60;3.97;;;8.20;99.90;;;;;;5071022;28;20430;-63
2023/01/31 03:23:18;;;;;;;9.10;4.30;;;8.20;99.90;;;;;;5071708;28;20431;-63
2023/01/31 03:25:45;;;;;;;6.50;4.10;;;8.20;99.90;;;;;;5070996;28;20477;-63
2023/01/31 03:28:16;;;;;;;13.70;4.23;;;8.20;99.90;;;;;;5071576;28;20540;-63
2023/01/31 03:30:50;;;;;;;14.00;4.83;;;8.20;99.90;;;;;;5071639;28;20434;-63
2023/01/31 03:33:26;;;;;;;13.67;4.10;;;8.10;99.90;;;;;;5070871;28;20470;-63
2023/01/31 03:35:58;;;;;;;10.87;4.47;;;8.10;99.90;;;;;;5069883;28;20403;-63
2023/01/31 03:38:30;;;;;;;8.80;4.17;;;8.10;99.90;;;;;;5071475;28;20852;-63
2023/01/31 03:41:08;;;;;;;7.47;4.63;;;8.10;99.90;;;;;;5051430;28;20471;-63
2023/01/31 03:43:43;;;;;;;10.37;5.30;;;8.10;99.90;;;;;;5052618;28;20444;-63
2023/01/31 03:46:16;;;;;;;10.23;4.53;;;8.20;99.90;;;;;;5052062;28;20448;-63
2023/01/31 03:48:47;;;;;;;13.90;6.43;;;8.20;99.90;;;;;;5066018;28;20843;-63
2023/01/31 03:51:21;;;;;;;8.17;4.63;;;8.30;99.90;;;;;;5070675;28;20388;-63
2023/01/31 03:54:00;;;;;;;7.97;4.70;;;8.10;99.90;;;;;;5072793;28;20409;-63
2023/01/31 03:56:46;;;;;;;9.07;4.07;;;8.10;99.90;;;;;;5071445;28;20464;-63
2023/01/31 03:59:16;;;;;;;10.13;4.10;;;8.10;99.90;;;;;;5070645;28;20430;-63
2023/01/31 04:01:49;;;;;;;8.60;4.00;;;8.10;99.90;;;;;;5070499;28;20438;-63
2023/01/31 04:04:19;;;;;;;9.63;3.80;;;8.00;99.90;;;;;;5071851;28;20400;-62
2023/01/31 04:06:45;;;;;;;6.37;4.07;;;8.00;99.90;;;;;;5071067;28;20498;-62
2023/01/31 04:09:11;;;;;;;12.20;4.17;;;8.10;99.90;;;;;;5070719;28;20468;-63
2023/01/31 04:11:39;;;;;;;8.33;4.13;;;8.00;99.90;;;;;;5072644;28;20177;-62
2023/01/31 04:14:05;;;;;;;11.90;4.33;;;8.00;99.90;;;;;;5068476;28;20484;-62
2023/01/31 04:16:31;;;;;;;8.10;3.97;;;8.00;99.90;;;;;;5071050;28;20432;-62
2023/01/31 04:18:57;;;;;;;15.40;4.10;;;8.00;99.90;;;;;;5067741;28;20431;-63
2023/01/31 04:21:23;;;;;;;8.97;4.03;;;7.90;99.90;;;;;;5055512;28;20459;-63
2023/01/31 04:23:48;;;;;;;10.83;3.80;;;7.90;99.90;;;;;;5057884;28;20633;-62
2023/01/31 04:26:14;;;;;;;9.73;4.40;;;7.90;99.90;;;;;;5070570;28;20208;-63
2023/01/31 04:28:40;;;;;;;8.83;4.37;;;7.90;99.90;;;;;;5069397;28;20192;-62
2023/01/31 04:31:06;;;;;;;9.40;4.10;;;8.00;99.90;;;;;;5069930;28;20189;-62
2023/01/31 04:33:32;;;;;;;10.83;3.80;;;8.00;99.90;;;;;;5060511;28;20485;-63
2023/01/31 04:35:57;;;;;;;8.27;3.10;;;8.00;99.90;;;;;;5060332;28;20445;-64
2023/01/31 04:38:23;;;;;;;5.70;2.77;;;8.00;99.90;;;;;;5068463;28;20196;-63
2023/01/31 04:40:49;;;;;;;11.57;4.00;;;8.00;99.90;;;;;;5067895;28;20243;-63
2023/01/31 04:43:15;;;;;;;9.83;4.37;;;8.00;99.90;;;;;;5071051;28;20235;-63
2023/01/31 04:45:41;;;;;;;6.30;5.80;;;8.00;99.90;;;;;;5065430;28;20829;-63
2023/01/31 04:48:06;;;;;;;8.20;3.77;;;7.90;99.90;;;;;;5053111;28;20493;-63
2023/01/31 04:50:32;;;;;;;6.53;3.00;;;8.00;99.90;;;;;;5070666;28;20275;-63
2023/01/31 04:52:58;;;;;;;12.50;6.10;;;8.00;99.90;;;;;;5070884;28;20191;-64
2023/01/31 04:55:25;;;;;;;16.40;7.20;;;8.00;99.90;;;;;;5073745;28;20192;-63
2023/01/31 04:57:51;;;;;;;8.90;3.87;;;8.00;99.90;;;;;;5074736;28;20204;-66
2023/01/31 05:00:17;;;;;;;9.20;6.67;;;7.90;99.90;;;;;;5073261;28;20584;-63
2023/01/31 05:02:43;;;;;;;14.27;8.33;;;8.00;99.90;;;;;;5074808;28;20622;-64
2023/01/31 05:05:11;;;;;;;8.80;4.07;;;7.90;99.90;;;;;;5071716;28;20451;-64
2023/01/31 05:07:38;;;;;;;14.23;5.10;;;7.90;99.90;;;;;;5075770;28;20425;-63
2023/01/31 05:10:04;;;;;;;10.37;5.13;;;7.90;99.90;;;;;;5073494;28;20528;-63
2023/01/31 05:12:30;;;;;;;11.00;5.40;;;7.90;99.90;;;;;;5072319;28;20451;-63
2023/01/31 05:14:55;;;;;;;13.80;6.10;;;7.90;99.90;;;;;;5075019;28;20417;-67
2023/01/31 05:17:28;;;;;;;10.37;4.60;;;7.90;99.90;;;;;;5073993;28;21003;-63
2023/01/31 05:19:57;;;;;;;15.13;5.33;;;7.80;99.90;;;;;;5074315;28;20246;-68
2023/01/31 05:22:24;;;;;;;12.47;5.50;;;7.80;99.90;;;;;;5073195;28;20437;-64
2023/01/31 05:24:50;;;;;;;10.00;5.40;;;7.70;99.90;;;;;;5074483;28;20952;-64
2023/01/31 05:27:16;;;;;;;14.57;5.73;;;7.70;99.90;;;;;;5071903;28;20474;-63
2023/01/31 05:29:42;;;;;;;9.90;5.53;;;7.60;99.90;;;;;;5074530;28;20449;-64
2023/01/31 05:32:08;;;;;;;16.10;7.40;;;7.70;99.90;;;;;;5073159;28;20461;-62
2023/01/31 05:34:34;;;;;;;10.97;6.63;;;7.80;99.90;;;;;;5062505;28;20443;-62
2023/01/31 05:37:00;;;;;;;13.83;6.83;;;7.80;99.90;;;;;;5056000;28;20523;-64
2023/01/31 05:39:26;;;;;;;11.80;5.67;;;7.80;99.90;;;;;;5059002;28;20469;-64
2023/01/31 05:41:52;;;;;;;10.30;6.00;;;7.80;99.90;;;;;;5055642;28;20472;-63
2023/01/31 05:44:19;;;;;;;8.33;6.63;;;7.80;99.90;;;;;;5052718;28;20768;-63
2023/01/31 05:46:44;;;;;;;10.40;6.83;;;7.80;99.90;;;;;;5043777;28;20664;-63
2023/01/31 05:49:11;;;;;;;12.70;6.50;;;7.80;99.90;;;;;;5054297;28;20471;-63
2023/01/31 05:51:37;;;;;;;13.40;7.00;;;7.80;99.90;;;;;;5054762;28;20169;-63
2023/01/31 05:54:03;;;;;;;12.03;7.73;;;7.80;99.90;;;;;;5052595;28;20437;-64
2023/01/31 05:56:29;;;;;;;9.93;7.93;;;7.80;99.90;;;;;;5055242;28;20430;-63
2023/01/31 05:58:54;;;;;;;22.73;8.10;;;7.90;99.90;;;;;;5054865;28;20411;-65
2023/01/31 06:01:22;;;;;;;16.80;8.13;;;7.90;99.90;;;;;;5043765;28;20442;-63
2023/01/31 06:03:48;;;;;;;16.00;10.20;;;7.90;99.90;;;;;;5034576;28;20259;-63
2023/01/31 06:06:14;;;;;;;12.80;7.67;;;7.90;99.90;;;;;;5048559;28;20498;-63
2023/01/31 06:08:40;;;;;;;17.13;8.90;;;7.90;99.90;;;;;;5055062;28;20419;-63
2023/01/31 06:11:07;;;;;;;13.47;9.70;;;7.90;99.90;;;;;;5031983;28;20216;-63
2023/01/31 06:13:33;;;;;;;14.13;7.63;;;8.00;99.90;;;;;;5046765;28;20423;-62
2023/01/31 06:15:59;;;;;;;9.67;7.80;;;7.90;99.90;;;;;;5052572;28;20415;-63
2023/01/31 06:18:25;;;;;;;13.97;9.50;;;7.80;99.90;;;;;;5053723;28;20424;-63
2023/01/31 06:20:52;;;;;;;13.73;8.30;;;7.90;99.90;;;;;;5054933;28;20601;-63
2023/01/31 06:23:18;;;;;;;13.03;8.00;;;7.90;99.90;;;;;;5036288;28;20419;-63
2023/01/31 06:25:44;;;;;;;14.27;7.00;;;7.90;99.90;;;;;;5052310;28;20477;-63
2023/01/31 06:28:09;;;;;;;19.23;9.30;;;7.90;99.90;;;;;;5034828;28;20449;-62
2023/01/31 06:30:35;;;;;;;12.60;8.50;;;7.90;99.90;;;;;;5019393;28;20182;-63
2023/01/31 06:33:01;;;;;;;13.47;7.73;;;7.90;99.90;;;;;;5037951;28;20429;-63
2023/01/31 06:35:27;;;;;;;14.90;7.00;;;7.90;99.90;;;;;;5036256;28;20242;-62
2023/01/31 06:37:54;;;;;;;12.90;7.00;;;8.00;99.90;;;;;;5054489;28;20420;-62
2023/01/31 06:40:20;;;;;;;21.07;8.40;;;8.10;99.90;;;;;;5053820;28;20278;-62
2023/01/31 06:42:46;;;;;;;11.30;7.00;;;8.00;99.90;;;;;;5036560;28;20456;-62
2023/01/31 06:45:11;;;;;;;13.47;9.03;;;8.00;99.90;;;;;;5053684;28;20424;-62
2023/01/31 06:47:37;;;;;;;12.53;7.30;;;8.00;99.90;;;;;;5053020;28;20642;-62
2023/01/31 06:50:03;;;;;;;14.90;7.00;;;7.90;99.90;;;;;;5035535;28;20422;-62
2023/01/31 06:52:29;;;;;;;11.97;8.63;;;8.00;99.90;;;;;;5034220;28;20185;-62
2023/01/31 06:54:54;;;;;;;16.03;9.63;;;8.00;99.90;;;;;;5034716;28;20451;-62
2023/01/31 06:57:20;;;;;;;11.07;7.20;;;8.00;99.90;;;;;;5036187;28;20677;-62
2023/01/31 06:59:46;;;;;;;13.93;5.90;;;8.10;99.90;;;;;;5042960;28;20188;-62
2023/01/31 07:02:12;;;;;;;8.93;8.07;;;8.10;99.90;;;;;;5026934;28;20209;-62
2023/01/31 07:04:37;;;;;;;15.80;8.60;;;8.00;99.90;;;;;;5039982;28;20646;-62
2023/01/31 07:07:03;;;;;;;14.83;8.93;;;8.00;99.90;;;;;;5022031;28;20470;-66
2023/01/31 07:09:29;;;;;;;12.40;6.57;;;8.00;99.90;;;;;;5027983;28;20229;-62
2023/01/31 07:11:55;;;;;;;11.27;7.33;;;8.10;99.90;;;;;;5043723;28;20428;-62
2023/01/31 07:14:20;;;;;;;14.50;6.70;;;8.10;99.90;;;;;;5053500;28;20281;-62
2023/01/31 07:16:46;;;;;;;18.23;7.30;;;8.10;99.90;;;;;;5044737;28;20640;-61
2023/01/31 07:19:12;;;;;;;13.03;6.67;;;8.00;99.90;;;;;;5035353;28;20185;-62
2023/01/31 07:21:37;;;;;;;13.37;7.83;;;8.00;99.90;;;;;;5053447;28;20180;-66
2023/01/31 07:24:03;;;;;;;13.63;7.57;;;8.00;99.90;;;;;;5041044;28;20292;-63
2023/01/31 07:26:29;;;;;;;15.10;8.00;;;8.00;99.90;;;;;;5044394;28;20258;-62
2023/01/31 07:28:55;;;;;;;15.47;5.97;;;8.00;99.90;;;;;;5044959;28;20442;-64
2023/01/31 07:31:21;;;;;;;12.57;5.90;;;8.10;99.90;;;;;;5051338;28;20577;-62
2023/01/31 07:33:47;;;;;;;10.43;7.23;;;8.00;99.90;;;;;;5050137;28;20628;-62
2023/01/31 07:36:15;;;;;;;13.67;7.73;;;8.00;99.90;;;;;;5050803;28;20198;-63
2023/01/31 07:38:41;;;;;;;13.50;6.50;;;8.00;99.90;;;;;;5052237;28;20792;-62
2023/01/31 07:41:09;;;;;;;9.53;6.50;;;8.00;99.90;;;;;;5052606;28;20451;-65
2023/01/31 07:43:35;;;;;;;19.93;11.57;;;8.20;99.90;;;;;;5050600;28;21997;-66
2023/01/31 07:46:01;;;;;;;17.83;9.03;;;9.00;99.90;;;;;;5034487;28;20468;-66
2023/01/31 07:48:27;;;;;;;12.50;8.00;;;9.20;99.90;;;;;;5034661;28;20196;-63
2023/01/31 07:50:58;;;;;;;13.50;8.43;;;10.20;99.90;;;;;;5050957;28;20828;-63
2023/01/31 07:53:27;;;;;;;15.80;6.77;;;10.00;99.90;;;;;;5020249;28;20634;-63
2023/01/31 07:55:53;;;;;;;16.20;6.80;;;9.70;99.90;;;;;;5053221;28;20413;-63
2023/01/31 07:58:18;;;;;;;12.63;7.20;;;9.50;99.90;;;;;;5035811;28;21028;-63
2023/01/31 08:03:32;;;;;;;12.87;8.10;;;9.20;99.90;;;;;;5047402;28;20194;-62
2023/01/31 08:06:05;;;;;;;13.30;6.63;;;9.00;99.90;;;;;;5015597;28;20455;-63
2023/01/31 08:08:31;;;;;;;16.90;7.97;;;8.90;99.90;;;;;;5046626;28;20432;-63
2023/01/31 08:10:57;;;;;;;16.40;7.57;;;8.70;99.90;;;;;;5032868;28;21051;-63
2023/01/31 08:13:25;;;;;;;14.47;6.83;;;8.60;99.90;;;;;;5032429;28;20406;-65
2023/01/31 08:15:52;;;;;;;10.17;6.73;;;8.50;99.90;;;;;;5039805;28;20426;-63
2023/01/31 08:18:18;;;;;;;7.97;7.17;;;8.50;99.90;;;;;;5036241;28;20455;-63
2023/01/31 08:20:43;;;;;;;16.17;7.80;;;8.50;99.90;;;;;;5032836;28;20425;-63
2023/01/31 08:23:09;;;;;;;10.13;7.77;;;8.40;99.90;;;;;;5035351;28;20170;-63
2023/01/31 08:25:35;;;;;;;14.53;11.60;;;8.40;99.90;;;;;;5051626;28;20217;-63
2023/01/31 08:28:02;;;;;;;15.20;7.83;;;8.30;99.90;;;;;;5052336;28;20534;-63
2023/01/31 08:30:28;;;;;;;11.73;5.90;;;8.10;99.90;;;;;;5051774;28;20271;-63
2023/01/31 08:32:55;;;;;;;12.30;7.00;;;8.10;99.90;;;;;;5045490;28;20390;-63
2023/01/31 08:35:21;;;;;;;11.47;6.07;;;8.20;99.90;;;;;;5032248;28;20416;-63
2023/01/31 08:37:47;;;;;;;16.43;6.10;;;8.20;99.90;;;;;;5032856;28;20413;-64
2023/01/31 08:40:13;;;;;;;16.03;7.20;;;8.20;99.90;;;;;;5031482;28;20559;-63
2023/01/31 08:42:38;;;;;;;9.40;5.30;;;8.10;99.90;;;;;;5032518;28;20393;-63
2023/01/31 08:45:06;;;;;;;13.47;5.50;;;8.20;99.90;;;;;;5032375;28;20424;-63
2023/01/31 08:47:32;;;;;;;9.10;5.50;;;8.10;99.90;;;;;;5014780;28;20855;-63
2023/01/31 08:49:58;;;;;;;11.53;5.80;;;8.20;99.90;;;;;;5015386;28;20429;-63
2023/01/31 08:52:23;;;;;;;10.20;5.10;;;8.20;99.90;;;;;;5031518;28;20578;-63
2023/01/31 08:54:49;;;;;;;9.67;5.43;;;8.10;99.90;;;;;;5038228;28;20578;-67
2023/01/31 08:57:15;;;;;;;11.60;5.67;;;8.20;99.90;;;;;;5018226;28;20275;-64
2023/01/31 08:59:40;;;;;;;11.13;5.00;;;8.10;99.90;;;;;;5045451;28;20188;-64
2023/01/31 09:02:09;;;;;;;14.10;6.40;;;8.00;99.90;;;;;;5043881;28;20184;-68
2023/01/31 09:04:35;;;;;;;9.87;5.70;;;8.10;99.90;;;;;;5044591;28;20669;-63
2023/01/31 09:07:01;;;;;;;9.27;5.03;;;8.10;99.90;;;;;;5025591;28;20464;-63
2023/01/31 09:09:26;;;;;;;10.73;5.83;;;8.00;99.90;;;;;;5046953;28;20210;-64
2023/01/31 09:11:52;;;;;;;11.70;6.70;;;8.10;99.90;;;;;;5050246;28;20201;-63
2023/01/31 09:14:18;;;;;;;7.57;5.17;;;8.10;99.90;;;;;;5050952;28;20659;-63
2023/01/31 09:16:45;;;;;;;9.50;4.93;;;8.10;99.90;;;;;;5051927;28;20177;-63
2023/01/31 09:19:11;;;;;;;12.27;5.20;;;8.00;99.90;;;;;;5051425;28;20229;-63
2023/01/31 09:21:37;;;;;;;10.70;4.90;;;8.00;99.90;;;;;;5051874;28;20407;-63
2023/01/31 09:24:03;;;;;;;6.77;4.70;;;7.90;99.90;;;;;;5015939;28;20474;-63
2023/01/31 09:26:29;;;;;;;10.50;4.73;;;7.90;99.90;;;;;;5050042;28;20496;-63
2023/01/31 09:28:56;;;;;;;9.10;5.30;;;8.00;99.90;;;;;;5051556;28;20416;-64
2023/01/31 09:31:22;;;;;;;12.00;5.10;;;8.00;99.90;;;;;;5050996;28;20385;-63
2023/01/31 09:33:48;;;;;;;6.37;4.63;;;8.00;99.90;;;;;;5017359;28;20419;-66
2023/01/31 09:36:19;;;;;;;9.33;4.57;;;8.00;99.90;;;;;;5028735;28;20197;-63
2023/01/31 09:38:45;;;;;;;8.33;4.07;;;8.00;99.90;;;;;;5032210;28;20393;-63
2023/01/31 09:41:21;;;;;;;11.93;5.07;;;8.00;99.90;;;;;;5034399;28;20462;-63
2023/01/31 09:43:53;;;;;;;10.10;5.90;;;7.90;99.90;;;;;;5035594;28;20173;-63
2023/01/31 09:46:22;;;;;;;9.30;6.00;;;7.90;99.90;;;;;;5034924;28;20422;-63
2023/01/31 09:48:51;;;;;;;9.33;4.70;;;7.90;99.90;;;;;;5035464;28;20470;-63
2023/01/31 09:51:18;;;;;;;6.33;4.17;;;7.90;99.90;;;;;;5034821;28;20539;-63
2023/01/31 09:53:45;;;;;;;11.40;6.50;;;7.90;99.90;;;;;;5017971;28;20402;-63
2023/01/31 09:56:29;;;;;;;5.90;5.13;;;7.90;99.90;;;;;;5034844;28;20395;-63
2023/01/31 09:59:33;;;;;;;9.03;4.37;;;7.90;99.90;;;;;;5001333;28;20424;-63
2023/01/31 10:02:21;;;;;;;11.63;7.87;;;7.90;99.90;;;;;;5035180;28;20462;-63
2023/01/31 10:05:20;;;;;;;7.97;6.80;;;7.90;99.90;;;;;;5041980;28;20435;-63
2023/01/31 10:08:01;;;;;;;8.27;4.90;;;7.80;99.90;;;;;;5037136;28;20537;-63
2023/01/31 10:10:37;;;;;;;11.33;5.27;;;7.70;99.90;;;;;;5054471;28;20494;-63
2023/01/31 10:13:33;;;;;;;10.87;6.80;;;7.80;99.90;;;;;;5055197;28;20629;-63
2023/01/31 10:16:20;;;;;;;5.80;5.40;;;7.80;99.90;;;;;;5054617;28;20912;-63
2023/01/31 10:18:52;;;;;;;8.27;5.20;;;7.80;99.90;;;;;;5054702;28;20407;-63
2023/01/31 10:21:23;;;;;;;7.60;4.83;;;7.80;99.90;;;;;;5054023;28;20406;-63
2023/01/31 10:24:04;;;;;;;9.50;4.40;;;7.80;99.90;;;;;;5054814;28;20738;-63
2023/01/31 10:26:35;;;;;;;6.70;6.10;;;7.80;99.90;;;;;;5036303;28;20978;-63
2023/01/31 10:29:20;;;;;;;5.73;4.70;;;7.70;99.90;;;;;;5037122;28;20411;-63
2023/01/31 10:32:20;;;;;;;7.10;5.33;;;7.80;99.90;;;;;;5054754;28;20470;-63
2023/01/31 10:35:04;;;;;;;8.27;5.10;;;7.80;99.90;;;;;;5053450;28;20428;-63
2023/01/31 10:37:42;;;;;;;9.40;5.50;;;7.80;99.90;;;;;;5054024;28;20391;-63
2023/01/31 10:40:29;;;;;;;8.47;4.73;;;7.90;99.90;;;;;;5054279;28;20465;-63
2023/01/31 10:43:03;;;;;;;7.50;4.60;;;8.00;99.90;;;;;;5054418;28;20800;-63
2023/01/31 10:45:32;;;;;;;7.17;5.47;;;7.90;99.90;;;;;;5053714;28;20443;-63
2023/01/31 10:48:07;;;;;;;7.07;6.43;;;7.90;99.90;;;;;;5054356;28;20424;-63
2023/01/31 10:50:44;;;;;;;9.60;5.50;;;7.90;99.90;;;;;;5053986;28;20700;-64
2023/01/31 10:53:35;;;;;;;6.30;5.57;;;7.90;99.90;;;;;;5036536;28;20466;-63
2023/01/31 10:56:09;;;;;;;11.37;7.80;;;8.00;99.90;;;;;;5054387;28;20400;-63
2023/01/31 10:58:35;;;;;;;8.20;5.20;;;8.00;99.90;;;;;;5053296;28;20954;-63
2023/01/31 11:01:13;;;;;;;6.27;4.53;;;8.00;99.90;;;;;;5054390;28;20499;-63
2023/01/31 11:03:47;;;;;;;8.97;8.07;;;8.00;99.90;;;;;;5052883;28;20499;-64
2023/01/31 11:06:13;;;;;;;4.87;4.57;;;8.00;99.90;;;;;;5054005;28;20773;-63
2023/01/31 11:08:50;;;;;;;6.30;5.70;;;8.00;99.90;;;;;;5053772;28;20412;-63
2023/01/31 11:11:25;;;;;;;7.00;6.30;;;8.00;99.90;;;;;;5053081;28;20419;-63
2023/01/31 11:14:17;;;;;;;8.97;5.23;;;8.00;99.90;;;;;;5054080;28;20412;-63
2023/01/31 11:16:44;;;;;;;6.83;6.23;;;8.10;99.90;;;;;;5049410;28;20516;-63
2023/01/31 11:19:34;;;;;;;5.63;4.47;;;8.10;99.90;;;;;;5053454;28;20407;-63
2023/01/31 11:22:00;;;;;;;5.57;5.07;;;8.10;99.90;;;;;;5036000;28;20776;-64
2023/01/31 11:24:29;;;;;;;8.77;6.10;;;8.10;99.90;;;;;;5052852;28;20404;-63
2023/01/31 11:27:05;;;;;;;8.80;5.67;;;8.10;99.90;;;;;;5053462;28;20451;-63
2023/01/31 11:29:36;;;;;;;6.23;5.33;;;8.10;99.90;;;;;;5034924;28;20511;-64
2023/01/31 11:32:11;;;;;;;8.00;4.67;;;8.10;99.90;;;;;;5045565;28;20447;-63
2023/01/31 11:34:36;;;;;;;10.13;5.53;;;8.10;99.90;;;;;;5032662;28;20432;-63
2023/01/31 11:37:14;;;;;;;12.93;7.60;;;8.20;99.90;;;;;;5032774;28;20837;-63
2023/01/31 11:39:40;;;;;;;7.73;5.57;;;8.00;99.90;;;;;;5032423;28;20174;-63
2023/01/31 11:42:14;;;;;;;11.40;5.93;;;8.10;99.90;;;;;;5033311;28;20504;-63
2023/01/31 11:45:01;;;;;;;13.80;7.53;;;8.10;99.90;;;;;;5032564;28;20406;-63
2023/01/31 11:47:40;;;;;;;8.87;5.73;;;8.10;99.90;;;;;;5032550;28;20459;-63
2023/01/31 11:50:18;;;;;;;9.13;7.60;;;8.10;99.90;;;;;;5032958;28;20461;-63
2023/01/31 11:52:44;;;;;;;13.17;6.47;;;8.10;99.90;;;;;;5032174;28;20962;-63
2023/01/31 11:55:17;;;;;;;7.50;6.30;;;8.10;99.90;;;;;;5032768;28;20409;-63
2023/01/31 11:57:43;;;;;;;10.43;9.30;;;8.10;99.90;;;;;;5033204;28;20505;-63
2023/01/31 12:00:24;;;;;;;9.30;5.60;;;8.20;99.90;;;;;;5015319;28;20802;-64
2023/01/31 12:03:14;;;;;;;10.87;8.60;;;8.30;99.90;;;;;;5043811;28;20432;-63
2023/01/31 12:05:48;;;;;;;13.13;6.53;;;8.30;99.90;;;;;;5051766;28;21047;-64
2023/01/31 12:08:34;;;;;;;11.10;7.73;;;8.30;99.90;;;;;;5052406;28;20395;-63
2023/01/31 12:11:08;;;;;;;12.83;8.77;;;8.30;99.90;;;;;;5052264;28;20430;-63
2023/01/31 12:13:51;;;;;;;11.30;7.00;;;8.30;99.90;;;;;;5052202;28;20505;-64
2023/01/31 12:16:25;;;;;;;10.03;9.03;;;8.30;99.90;;;;;;5052891;28;20410;-63
2023/01/31 12:19:03;;;;;;;9.83;7.23;;;8.30;99.90;;;;;;5052467;28;20400;-62
2023/01/31 12:21:47;;;;;;;9.30;7.50;;;8.30;99.90;;;;;;5034655;28;20404;-63
2023/01/31 12:24:50;;;;;;;11.60;8.33;;;8.30;99.90;;;;;;5052718;28;20388;-63
2023/01/31 12:27:26;;;;;;;13.07;7.83;;;8.30;99.90;;;;;;5034739;28;20456;-63
2023/01/31 12:29:55;;;;;;;12.97;8.70;;;8.40;99.90;;;;;;5052647;28;20455;-63
2023/01/31 12:32:42;;;;;;;14.70;8.70;;;8.40;99.90;;;;;;5050582;28;20497;-63
2023/01/31 12:35:24;;;;;;;13.30;8.53;;;8.40;99.90;;;;;;5034709;28;20457;-63
2023/01/31 12:38:34;;;;;;;13.77;9.20;;;8.40;99.90;;;;;;5052437;28;20397;-63
2023/01/31 12:41:31;;;;;;;12.30;9.40;;;8.40;99.90;;;;;;5041452;28;20468;-63
2023/01/31 12:44:36;;;;;;;15.17;9.00;;;8.40;99.90;;;;;;5052564;28;20419;-63
2023/01/31 12:47:25;;;;;;;17.40;9.60;;;8.30;99.90;;;;;;5034616;28;20489;-63
2023/01/31 12:49:51;;;;;;;11.70;8.17;;;8.30;99.90;;;;;;5052403;28;20404;-63
2023/01/31 12:52:27;;;;;;;11.73;9.30;;;8.30;99.90;;;;;;5052369;28;20415;-63
2023/01/31 12:54:53;;;;;;;12.90;10.17;;;8.30;99.90;;;;;;5052438;28;20598;-63
2023/01/31 12:57:37;;;;;;;13.83;10.27;;;8.30;99.90;;;;;;5034575;28;20469;-63
2023/01/31 13:00:23;;;;;;;14.97;10.00;;;8.40;99.90;;;;;;5052263;28;20169;-63
2023/01/31 13:03:09;;;;;;;11.43;10.33;;;8.30;99.90;;;;;;5051026;28;20445;-63
2023/01/31 13:05:55;;;;;;;19.17;10.20;;;8.30;99.90;;;;;;5033539;28;20874;-63
2023/01/31 13:08:24;;;;;;;10.63;9.53;;;8.30;99.90;;;;;;5051697;28;20746;-67
2023/01/31 13:11:42;;;;;;;15.10;11.00;;;8.30;99.90;;;;;;5052257;28;20449;-63
2023/01/31 13:14:18;;;;;;;13.83;9.80;;;8.40;99.90;;;;;;5011638;28;20505;-63
2023/01/31 13:16:46;;;;;;;11.67;9.80;;;8.30;99.90;;;;;;5055489;28;20439;-63